Time;durP1;ratioP1;P1;durP2;ratioP2;P2;SDS_P1;SDS_P2;PMS_P1;PMS_P2;Temp;Humidity;BMP_temperature;BMP_pressure;BME280_temperature;BME280_humidity;BME280_pressure;Samples;Min_cycle;Max_cycle;Signal;HPM_P1;HPM_P2
2021/12/08 00:00:38;;;;;;;0.88;0.50;;;;;;;;;;7388652;19;20310;-73
2021/12/08 00:03:07;;;;;;;0.82;0.43;;;;;;;;;;7388893;19;20062;-73
2021/12/08 00:05:33;;;;;;;1.80;0.63;;;;;;;;;;7386449;19;20018;-74
2021/12/08 00:08:00;;;;;;;2.20;0.75;;;;;;;;;;7387350;19;20091;-74
2021/12/08 00:13:06;;;;;;;1.15;0.50;;;;;;;;;;7387088;19;20010;-73
2021/12/08 00:15:37;;;;;;;1.00;0.80;;;;;;;;;;7386141;19;20002;-74
2021/12/08 00:18:05;;;;;;;1.95;0.70;;;;;;;;;;7387167;19;20013;-73
2021/12/08 00:20:32;;;;;;;0.70;0.50;;;;;;;;;;7387283;19;20025;-73
2021/12/08 00:22:59;;;;;;;1.35;0.38;;;;;;;;;;7387253;19;20035;-74
2021/12/08 00:25:25;;;;;;;1.77;0.70;;;;;;;;;;7387637;19;20014;-73
2021/12/08 00:27:50;;;;;;;1.05;0.70;;;;;;;;;;7386586;19;20139;-74
2021/12/08 00:30:16;;;;;;;1.60;0.50;;;;;;;;;;7386790;19;20500;-73
2021/12/08 00:32:43;;;;;;;0.32;0.32;;;;;;;;;;7387926;19;20131;-74
2021/12/08 00:35:08;;;;;;;1.30;0.60;;;;;;;;;;7387488;19;20006;-73
2021/12/08 00:37:34;;;;;;;2.78;0.70;;;;;;;;;;7385030;19;20002;-73
2021/12/08 00:39:59;;;;;;;1.13;0.52;;;;;;;;;;7382716;19;20007;-73
2021/12/08 00:42:25;;;;;;;2.60;0.70;;;;;;;;;;7386489;19;20006;-73
2021/12/08 00:44:50;;;;;;;0.73;0.55;;;;;;;;;;7386721;19;20104;-74
2021/12/08 00:47:17;;;;;;;1.17;0.80;;;;;;;;;;7386925;19;20057;-74
2021/12/08 00:49:44;;;;;;;1.05;0.60;;;;;;;;;;7385467;19;20003;-73
2021/12/08 00:52:10;;;;;;;0.90;0.60;;;;;;;;;;7380616;19;20010;-73
2021/12/08 00:54:35;;;;;;;1.88;0.73;;;;;;;;;;7386125;19;20006;-73
2021/12/08 00:57:01;;;;;;;2.03;0.65;;;;;;;;;;7382999;19;20087;-74
2021/12/08 00:59:27;;;;;;;1.00;0.38;;;;;;;;;;7383377;19;20019;-73
2021/12/08 01:01:53;;;;;;;0.77;0.57;;;;;;;;;;7384168;19;20025;-73
2021/12/08 01:04:18;;;;;;;0.95;0.60;;;;;;;;;;7386134;19;20011;-73
2021/12/08 01:06:43;;;;;;;2.03;0.50;;;;;;;;;;7385980;19;20006;-72
2021/12/08 01:09:10;;;;;;;1.30;0.55;;;;;;;;;;7386471;19;20023;-74
2021/12/08 01:11:36;;;;;;;1.65;0.60;;;;;;;;;;7381503;19;20034;-73
2021/12/08 01:14:01;;;;;;;0.40;0.40;;;;;;;;;;7384693;19;20006;-74
2021/12/08 01:16:27;;;;;;;0.57;0.43;;;;;;;;;;7384377;19;20002;-74
2021/12/08 01:18:52;;;;;;;0.57;0.57;;;;;;;;;;7384118;19;20009;-73
2021/12/08 01:21:20;;;;;;;2.75;0.60;;;;;;;;;;7384021;19;20023;-74
2021/12/08 01:23:46;;;;;;;0.35;0.22;;;;;;;;;;7385201;19;20002;-73
2021/12/08 01:26:11;;;;;;;1.27;0.38;;;;;;;;;;7386913;19;20021;-73
2021/12/08 01:28:37;;;;;;;0.28;0.28;;;;;;;;;;7385153;19;20006;-74
2021/12/08 01:31:04;;;;;;;0.68;0.30;;;;;;;;;;7385050;19;20015;-74
2021/12/08 01:33:32;;;;;;;1.40;0.47;;;;;;;;;;7386170;19;20587;-74
2021/12/08 01:35:58;;;;;;;1.55;0.45;;;;;;;;;;7387721;19;20521;-73
2021/12/08 01:38:25;;;;;;;1.80;0.50;;;;;;;;;;7382354;19;20006;-73
2021/12/08 01:40:51;;;;;;;0.50;0.50;;;;;;;;;;7384077;19;20254;-73
2021/12/08 01:43:25;;;;;;;1.08;0.50;;;;;;;;;;7385343;19;20003;-73
2021/12/08 01:46:00;;;;;;;0.55;0.40;;;;;;;;;;7385040;19;20003;-74
2021/12/08 01:48:29;;;;;;;0.82;0.50;;;;;;;;;;7382943;19;20090;-74
2021/12/08 01:51:16;;;;;;;0.82;0.55;;;;;;;;;;7383820;19;20073;-74
2021/12/08 01:53:43;;;;;;;0.70;0.63;;;;;;;;;;7385293;19;20027;-74
2021/12/08 01:56:09;;;;;;;1.35;0.60;;;;;;;;;;7383636;19;20083;-74
2021/12/08 01:58:35;;;;;;;1.58;1.00;;;;;;;;;;7381882;19;20456;-74
2021/12/08 02:01:05;;;;;;;1.40;0.45;;;;;;;;;;7380730;19;20018;-74
2021/12/08 02:03:31;;;;;;;1.00;0.45;;;;;;;;;;7385823;19;20014;-74
2021/12/08 02:05:57;;;;;;;0.45;0.40;;;;;;;;;;7382499;19;20010;-73
2021/12/08 02:08:23;;;;;;;1.52;0.57;;;;;;;;;;7387688;19;20009;-73
2021/12/08 02:10:49;;;;;;;1.40;0.55;;;;;;;;;;7390125;19;20014;-74
2021/12/08 02:13:15;;;;;;;1.20;0.50;;;;;;;;;;7393188;19;20034;-73
2021/12/08 02:15:40;;;;;;;0.60;0.52;;;;;;;;;;7390945;19;20007;-73
2021/12/08 02:18:09;;;;;;;1.77;0.80;;;;;;;;;;7391584;19;19999;-74
2021/12/08 02:20:35;;;;;;;0.77;0.40;;;;;;;;;;7389359;19;20444;-74
2021/12/08 02:23:00;;;;;;;0.98;0.60;;;;;;;;;;7390623;19;19999;-74
2021/12/08 02:25:27;;;;;;;0.70;0.32;;;;;;;;;;7389704;19;20085;-73
2021/12/08 02:27:55;;;;;;;0.50;0.43;;;;;;;;;;7389859;19;20070;-74
2021/12/08 02:31:07;;;;;;;1.52;0.70;;;;;;;;;;7389406;19;20017;-74
2021/12/08 02:49:22;;;;;;;0.90;0.55;;;;;;;;;;7388753;19;20002;-73
2021/12/08 02:51:50;;;;;;;0.70;0.50;;;;;;;;;;7385988;19;20018;-73
2021/12/08 02:54:15;;;;;;;1.27;0.50;;;;;;;;;;7390137;19;20002;-73
2021/12/08 02:56:41;;;;;;;1.45;0.70;;;;;;;;;;7388546;19;20456;-74
2021/12/08 02:59:06;;;;;;;0.47;0.40;;;;;;;;;;7388408;19;20086;-73
2021/12/08 03:01:32;;;;;;;0.88;0.52;;;;;;;;;;7387321;19;20133;-74
2021/12/08 03:03:57;;;;;;;0.60;0.50;;;;;;;;;;7387955;19;20003;-73
2021/12/08 03:06:23;;;;;;;0.55;0.40;;;;;;;;;;7388083;19;20010;-73
2021/12/08 03:08:49;;;;;;;0.60;0.60;;;;;;;;;;7387827;19;20164;-74
2021/12/08 03:11:15;;;;;;;2.83;0.52;;;;;;;;;;7386490;19;20052;-73
2021/12/08 03:13:44;;;;;;;1.30;0.75;;;;;;;;;;7387400;19;20238;-74
2021/12/08 03:16:11;;;;;;;0.55;0.50;;;;;;;;;;7386968;19;20449;-73
2021/12/08 03:18:39;;;;;;;0.75;0.52;;;;;;;;;;7386252;19;20007;-73
2021/12/08 03:21:07;;;;;;;0.70;0.50;;;;;;;;;;7384669;19;20549;-74
2021/12/08 03:23:47;;;;;;;0.60;0.60;;;;;;;;;;7388510;19;20014;-74
2021/12/08 03:26:13;;;;;;;0.45;0.40;;;;;;;;;;7388418;19;20007;-74
2021/12/08 03:28:46;;;;;;;0.65;0.57;;;;;;;;;;7389162;19;20007;-74
2021/12/08 03:31:16;;;;;;;1.10;0.45;;;;;;;;;;7387221;19;20010;-73
2021/12/08 03:33:43;;;;;;;0.63;0.32;;;;;;;;;;7389845;19;20027;-73
2021/12/08 03:36:08;;;;;;;0.80;0.60;;;;;;;;;;7390630;19;20031;-73
2021/12/08 03:38:35;;;;;;;1.02;0.63;;;;;;;;;;7386668;19;19998;-75
2021/12/08 03:41:02;;;;;;;1.63;0.60;;;;;;;;;;7388674;19;20006;-71
2021/12/08 03:43:29;;;;;;;0.65;0.40;;;;;;;;;;7387062;19;20006;-73
2021/12/08 03:45:55;;;;;;;1.17;0.85;;;;;;;;;;7388487;19;20038;-73
2021/12/08 03:48:27;;;;;;;0.57;0.45;;;;;;;;;;7388446;19;20118;-72
2021/12/08 03:50:53;;;;;;;1.70;0.63;;;;;;;;;;7386314;19;20010;-76
2021/12/08 03:53:18;;;;;;;1.10;0.50;;;;;;;;;;7383259;19;20006;-74
2021/12/08 03:55:47;;;;;;;0.30;0.30;;;;;;;;;;7387042;19;20046;-71
2021/12/08 03:58:13;;;;;;;0.77;0.57;;;;;;;;;;7387132;19;20023;-73
2021/12/08 04:00:41;;;;;;;2.05;0.57;;;;;;;;;;7385910;19;20006;-74
2021/12/08 04:03:07;;;;;;;0.75;0.60;;;;;;;;;;7385671;19;20112;-75
2021/12/08 04:05:46;;;;;;;1.23;0.57;;;;;;;;;;7385458;19;20014;-72
2021/12/08 04:08:26;;;;;;;0.75;0.50;;;;;;;;;;7385062;19;20019;-71
2021/12/08 04:10:52;;;;;;;1.40;1.20;;;;;;;;;;7384684;19;20013;-72
2021/12/08 04:13:21;;;;;;;0.73;0.60;;;;;;;;;;7385059;19;20074;-74
2021/12/08 04:15:47;;;;;;;0.90;0.60;;;;;;;;;;7386356;19;20049;-71
2021/12/08 04:18:12;;;;;;;0.93;0.65;;;;;;;;;;7385158;19;20359;-71
2021/12/08 04:20:42;;;;;;;2.58;0.70;;;;;;;;;;7383410;19;20005;-71
2021/12/08 04:23:12;;;;;;;1.38;0.60;;;;;;;;;;7383942;19;20017;-71
2021/12/08 04:25:39;;;;;;;1.40;0.60;;;;;;;;;;7386614;19;20003;-73
2021/12/08 04:28:10;;;;;;;0.60;0.52;;;;;;;;;;7383851;19;20461;-72
2021/12/08 04:30:41;;;;;;;0.93;0.63;;;;;;;;;;7383947;19;20016;-73
2021/12/08 04:33:07;;;;;;;1.65;0.80;;;;;;;;;;7382975;19;20054;-72
2021/12/08 04:35:34;;;;;;;1.55;0.80;;;;;;;;;;7384263;19;20066;-71
2021/12/08 04:38:04;;;;;;;0.65;0.52;;;;;;;;;;7382706;19;20013;-72
2021/12/08 04:43:23;;;;;;;0.80;0.52;;;;;;;;;;7384137;19;20006;-74
2021/12/08 04:46:14;;;;;;;0.90;0.50;;;;;;;;;;7385524;19;20014;-75
2021/12/08 05:00:14;;;;;;;1.30;0.68;;;;;;;;;;7384340;19;20017;-72
2021/12/08 05:02:37;;;;;;;0.65;0.47;;;;;;;;;;7382564;19;20299;-71
2021/12/08 05:05:16;;;;;;;0.70;0.52;;;;;;;;;;7381449;19;20116;-74
2021/12/08 05:10:16;;;;;;;1.60;1.00;;;;;;;;;;7382729;19;20011;-71
2021/12/08 05:12:45;;;;;;;1.10;0.68;;;;;;;;;;7383949;19;20118;-70
2021/12/08 05:15:11;;;;;;;1.73;1.00;;;;;;;;;;7383392;19;20006;-71
2021/12/08 05:17:47;;;;;;;2.08;1.38;;;;;;;;;;7383820;19;20037;-71
2021/12/08 05:20:20;;;;;;;1.30;0.95;;;;;;;;;;7379827;19;20010;-72
2021/12/08 05:22:52;;;;;;;1.00;0.65;;;;;;;;;;7383339;19;20014;-71
2021/12/08 05:25:23;;;;;;;0.90;0.73;;;;;;;;;;7380198;19;20010;-75
2021/12/08 05:27:52;;;;;;;0.85;0.80;;;;;;;;;;7384782;19;20014;-72
2021/12/08 05:30:31;;;;;;;0.75;0.55;;;;;;;;;;7383142;19;20021;-72
2021/12/08 05:32:59;;;;;;;0.95;0.70;;;;;;;;;;7372193;19;19998;-72
2021/12/08 05:35:26;;;;;;;1.42;0.85;;;;;;;;;;7381443;19;20041;-75
2021/12/08 05:37:52;;;;;;;1.23;0.77;;;;;;;;;;7382802;19;20010;-73
2021/12/08 05:40:23;;;;;;;2.33;0.95;;;;;;;;;;7379686;19;20038;-73
2021/12/08 05:42:48;;;;;;;1.65;0.90;;;;;;;;;;7379479;19;20389;-75
2021/12/08 05:45:17;;;;;;;1.50;1.05;;;;;;;;;;7383111;19;20007;-71
2021/12/08 05:47:44;;;;;;;1.95;0.98;;;;;;;;;;7383252;19;20013;-72
2021/12/08 05:50:12;;;;;;;4.00;1.30;;;;;;;;;;7380408;19;20015;-70
2021/12/08 05:52:38;;;;;;;1.67;0.90;;;;;;;;;;7380888;19;20031;-71
2021/12/08 05:55:06;;;;;;;1.45;0.80;;;;;;;;;;7383838;19;20465;-72
2021/12/08 05:57:36;;;;;;;1.38;0.80;;;;;;;;;;7382555;19;20038;-71
2021/12/08 06:00:10;;;;;;;0.95;0.90;;;;;;;;;;7379080;19;20464;-71
2021/12/08 06:02:37;;;;;;;0.68;0.68;;;;;;;;;;7379787;19;20145;-74
2021/12/08 06:05:05;;;;;;;0.65;0.65;;;;;;;;;;7381211;19;20340;-72
2021/12/08 06:07:30;;;;;;;1.52;1.10;;;;;;;;;;7379298;19;20317;-74
2021/12/08 06:09:58;;;;;;;1.05;0.88;;;;;;;;;;7381281;19;19998;-71
2021/12/08 06:12:25;;;;;;;1.05;0.90;;;;;;;;;;7379697;19;20013;-72
2021/12/08 06:14:55;;;;;;;0.80;0.75;;;;;;;;;;7381052;19;20119;-72
2021/12/08 06:17:25;;;;;;;2.85;1.20;;;;;;;;;;7377567;19;20006;-73
2021/12/08 06:19:50;;;;;;;4.57;1.20;;;;;;;;;;7379331;19;20002;-72
2021/12/08 06:22:18;;;;;;;1.33;0.95;;;;;;;;;;7381571;19;20007;-72
2021/12/08 06:24:44;;;;;;;1.45;1.33;;;;;;;;;;7380267;19;20118;-73
2021/12/08 06:27:11;;;;;;;3.38;0.90;;;;;;;;;;7379952;19;20010;-73
2021/12/08 06:29:37;;;;;;;1.50;1.00;;;;;;;;;;7378627;19;20031;-73
2021/12/08 06:32:05;;;;;;;0.93;0.82;;;;;;;;;;7376723;19;20344;-71
2021/12/08 06:34:31;;;;;;;0.98;0.75;;;;;;;;;;7376396;19;20003;-70
2021/12/08 06:37:05;;;;;;;0.98;0.90;;;;;;;;;;7378408;19;20337;-70
2021/12/08 06:39:35;;;;;;;3.90;1.60;;;;;;;;;;7380475;19;20392;-71
2021/12/08 06:42:06;;;;;;;1.75;1.15;;;;;;;;;;7374376;19;20229;-72
2021/12/08 06:44:35;;;;;;;1.13;0.82;;;;;;;;;;7378379;19;20014;-71
2021/12/08 06:47:04;;;;;;;1.55;1.10;;;;;;;;;;7371142;19;20014;-71
2021/12/08 06:49:30;;;;;;;1.20;1.08;;;;;;;;;;7372917;19;20017;-71
2021/12/08 06:52:04;;;;;;;1.23;1.02;;;;;;;;;;7377032;19;20025;-71
2021/12/08 06:54:40;;;;;;;1.52;1.10;;;;;;;;;;7381870;19;20030;-71
2021/12/08 06:57:14;;;;;;;1.27;1.13;;;;;;;;;;7386263;19;19999;-71
2021/12/08 06:59:53;;;;;;;2.03;1.00;;;;;;;;;;7383030;19;20015;-72
2021/12/08 07:02:36;;;;;;;1.23;0.70;;;;;;;;;;7380429;19;20476;-71
2021/12/08 07:05:12;;;;;;;1.38;1.08;;;;;;;;;;7388579;19;20557;-72
2021/12/08 07:07:41;;;;;;;1.33;1.05;;;;;;;;;;7388008;19;20026;-71
2021/12/08 07:10:22;;;;;;;1.50;1.08;;;;;;;;;;7385211;19;20010;-70
2021/12/08 07:13:04;;;;;;;0.70;0.70;;;;;;;;;;7385874;19;20038;-74
2021/12/08 07:15:38;;;;;;;1.65;0.90;;;;;;;;;;7386004;19;20003;-72
2021/12/08 07:18:10;;;;;;;1.45;1.00;;;;;;;;;;7386958;19;20006;-72
2021/12/08 07:20:47;;;;;;;1.00;0.90;;;;;;;;;;7383111;19;20118;-73
2021/12/08 07:23:24;;;;;;;1.20;1.10;;;;;;;;;;7385583;19;20016;-73
2021/12/08 07:25:52;;;;;;;1.63;1.00;;;;;;;;;;7386731;19;20506;-71
2021/12/08 07:28:20;;;;;;;1.88;1.15;;;;;;;;;;7386114;19;20078;-72
2021/12/08 07:31:18;;;;;;;2.25;1.23;;;;;;;;;;7382861;19;20440;-71
2021/12/08 07:33:44;;;;;;;1.67;0.88;;;;;;;;;;7384396;19;20106;-72
2021/12/08 07:36:15;;;;;;;1.20;0.88;;;;;;;;;;7387144;19;20059;-71
2021/12/08 07:38:43;;;;;;;1.77;1.27;;;;;;;;;;7383952;19;20027;-75
2021/12/08 07:41:16;;;;;;;1.67;1.15;;;;;;;;;;7383559;19;20439;-71
2021/12/08 07:43:50;;;;;;;2.40;1.42;;;;;;;;;;7385442;19;20009;-72
2021/12/08 07:46:20;;;;;;;2.55;1.13;;;;;;;;;;7386364;19;20623;-71
2021/12/08 07:48:54;;;;;;;3.05;1.50;;;;;;;;;;7383558;19;20024;-72
2021/12/08 07:51:28;;;;;;;2.67;1.80;;;;;;;;;;7380856;19;20044;-72
2021/12/08 07:53:54;;;;;;;1.58;1.38;;;;;;;;;;7386018;19;20263;-75
2021/12/08 07:56:23;;;;;;;2.50;1.40;;;;;;;;;;7382980;19;20126;-74
2021/12/08 07:58:53;;;;;;;1.33;1.13;;;;;;;;;;7385191;19;20008;-73
2021/12/08 08:01:25;;;;;;;2.10;1.30;;;;;;;;;;7382376;19;20047;-71
2021/12/08 08:03:52;;;;;;;3.97;1.40;;;;;;;;;;7382953;19;20014;-70
2021/12/08 08:06:25;;;;;;;1.83;1.30;;;;;;;;;;7387591;19;20007;-74
2021/12/08 08:08:50;;;;;;;1.30;0.88;;;;;;;;;;7383728;19;20002;-72
2021/12/08 08:11:26;;;;;;;4.68;1.30;;;;;;;;;;7383080;19;20013;-72
2021/12/08 08:13:52;;;;;;;5.15;1.70;;;;;;;;;;7382881;19;20034;-76
2021/12/08 08:16:21;;;;;;;1.75;1.55;;;;;;;;;;7381872;19;20441;-73
2021/12/08 08:18:54;;;;;;;2.67;1.90;;;;;;;;;;7381227;19;19998;-70
2021/12/08 08:21:23;;;;;;;4.07;1.52;;;;;;;;;;7347971;19;20713;-74
2021/12/08 08:23:49;;;;;;;3.75;1.80;;;;;;;;;;7381337;19;20010;-73
2021/12/08 08:26:15;;;;;;;21.30;2.97;;;;;;;;;;7385656;19;20028;-73
2021/12/08 08:28:44;;;;;;;46.10;7.70;;;;;;;;;;7382974;19;20469;-75
2021/12/08 08:31:19;;;;;;;27.50;3.70;;;;;;;;;;7383959;19;20014;-73
2021/12/08 08:33:45;;;;;;;3.53;1.80;;;;;;;;;;7382905;19;19994;-71
2021/12/08 08:36:17;;;;;;;10.52;2.50;;;;;;;;;;7383245;19;20015;-73
2021/12/08 08:38:54;;;;;;;5.72;1.90;;;;;;;;;;7378393;19;20010;-73
2021/12/08 08:41:25;;;;;;;2.45;1.42;;;;;;;;;;7381643;19;20435;-72
2021/12/08 08:43:54;;;;;;;1.40;1.02;;;;;;;;;;7383567;19;20014;-72
2021/12/08 08:46:27;;;;;;;4.75;1.50;;;;;;;;;;7380621;19;20014;-72
2021/12/08 08:49:03;;;;;;;2.63;1.48;;;;;;;;;;7383837;19;20003;-72
2021/12/08 08:51:32;;;;;;;45.15;6.68;;;;;;;;;;7379883;19;20003;-76
2021/12/08 08:54:05;;;;;;;25.60;2.75;;;;;;;;;;7376104;19;20002;-76
2021/12/08 08:56:35;;;;;;;14.45;2.55;;;;;;;;;;7377104;19;20416;-72
2021/12/08 08:59:10;;;;;;;7.57;2.80;;;;;;;;;;7379573;19;20056;-74
2021/12/08 09:01:39;;;;;;;;;;;;;;;;;;7382232;19;20015;-75
2021/12/08 09:04:17;;;;;;;2.15;1.25;;;;;;;;;;7381621;19;19926;-74
2021/12/08 09:06:45;;;;;;;3.10;1.63;;;;;;;;;;7383000;19;20010;-71
2021/12/08 09:09:26;;;;;;;2.78;1.80;;;;;;;;;;7380987;19;20078;-72
2021/12/08 09:12:07;;;;;;;2.40;1.88;;;;;;;;;;7379707;19;20290;-71
2021/12/08 09:14:35;;;;;;;3.55;2.00;;;;;;;;;;7379651;19;20006;-74
2021/12/08 09:17:25;;;;;;;3.70;1.92;;;;;;;;;;7377576;19;20007;-71
2021/12/08 09:20:03;;;;;;;4.13;1.80;;;;;;;;;;7374159;19;20010;-73
2021/12/08 09:22:36;;;;;;;4.70;2.15;;;;;;;;;;7379931;19;20485;-73
2021/12/08 09:25:21;;;;;;;3.97;2.08;;;;;;;;;;7380077;19;20128;-71
2021/12/08 09:27:52;;;;;;;4.25;2.40;;;;;;;;;;7383112;19;20388;-71
2021/12/08 09:30:34;;;;;;;3.13;2.05;;;;;;;;;;7383544;19;20002;-71
2021/12/08 09:33:24;;;;;;;3.55;2.10;;;;;;;;;;7382465;19;20002;-71
2021/12/08 09:36:00;;;;;;;2.50;1.70;;;;;;;;;;7384374;19;20006;-72
2021/12/08 09:38:31;;;;;;;2.83;1.52;;;;;;;;;;7378635;19;20002;-73
2021/12/08 09:41:01;;;;;;;7.15;4.40;;;;;;;;;;7377843;19;20469;-71
2021/12/08 09:43:33;;;;;;;4.15;2.33;;;;;;;;;;7376962;19;20736;-72
2021/12/08 09:46:12;;;;;;;2.85;1.92;;;;;;;;;;7380572;19;20009;-72
2021/12/08 09:48:41;;;;;;;4.50;2.30;;;;;;;;;;7379456;19;20009;-72
2021/12/08 09:51:08;;;;;;;5.13;2.95;;;;;;;;;;7378459;19;20042;-71
2021/12/08 09:53:35;;;;;;;2.42;1.85;;;;;;;;;;7378957;19;20034;-76
2021/12/08 09:56:02;;;;;;;3.03;2.03;;;;;;;;;;7381957;19;20014;-76
2021/12/08 09:58:28;;;;;;;2.45;1.77;;;;;;;;;;7377970;19;20018;-72
2021/12/08 10:00:59;;;;;;;3.17;2.10;;;;;;;;;;7379747;19;20007;-71
2021/12/08 10:03:25;;;;;;;2.83;1.98;;;;;;;;;;7378617;19;20044;-71
2021/12/08 10:05:52;;;;;;;4.18;1.95;;;;;;;;;;7375099;19;20007;-72
2021/12/08 10:08:17;;;;;;;3.33;2.40;;;;;;;;;;7374131;19;20085;-72
2021/12/08 10:10:45;;;;;;;5.97;2.60;;;;;;;;;;7380181;19;20783;-72
2021/12/08 10:13:12;;;;;;;3.83;2.13;;;;;;;;;;7380345;19;20006;-74
2021/12/08 10:15:38;;;;;;;4.65;2.17;;;;;;;;;;7379411;19;20101;-76
2021/12/08 10:18:07;;;;;;;2.78;2.10;;;;;;;;;;7376305;19;20018;-72
2021/12/08 10:20:37;;;;;;;4.32;2.15;;;;;;;;;;7377017;19;20429;-73
2021/12/08 10:23:10;;;;;;;4.80;2.05;;;;;;;;;;7380152;19;20018;-74
2021/12/08 10:25:42;;;;;;;2.40;1.73;;;;;;;;;;7381533;19;20003;-75
2021/12/08 10:28:18;;;;;;;6.50;2.42;;;;;;;;;;7378849;19;20027;-76
2021/12/08 10:30:54;;;;;;;3.53;2.47;;;;;;;;;;7384065;19;20051;-71
2021/12/08 10:33:45;;;;;;;3.45;1.85;;;;;;;;;;7385920;19;20034;-71
2021/12/08 10:36:23;;;;;;;2.97;2.00;;;;;;;;;;7386633;19;20011;-72
2021/12/08 10:38:48;;;;;;;3.55;2.00;;;;;;;;;;7386020;19;20006;-72
2021/12/08 10:41:14;;;;;;;2.92;2.17;;;;;;;;;;7380579;19;20010;-71
2021/12/08 10:43:39;;;;;;;3.22;2.08;;;;;;;;;;7381652;19;20090;-74
2021/12/08 10:46:11;;;;;;;4.43;1.88;;;;;;;;;;7381940;19;20878;-71
2021/12/08 10:48:43;;;;;;;1.92;1.67;;;;;;;;;;7377292;19;20018;-71
2021/12/08 10:54:37;;;;;;;2.85;2.13;;;;;;;;;;7388329;19;20354;-72
2021/12/08 10:57:21;;;;;;;2.35;2.08;;;;;;;;;;7379206;19;20015;-72
2021/12/08 10:59:56;;;;;;;3.05;2.08;;;;;;;;;;7378894;19;20013;-73
2021/12/08 11:02:38;;;;;;;;;;;;;;;;;;7386518;19;20040;-72
2021/12/08 11:05:06;;;;;;;3.53;2.15;;;;;;;;;;7380446;19;20314;-76
2021/12/08 11:07:32;;;;;;;3.53;1.98;;;;;;;;;;7382638;19;20009;-72
2021/12/08 11:09:57;;;;;;;3.33;2.15;;;;;;;;;;7382764;19;20193;-71
2021/12/08 11:12:38;;;;;;;3.85;2.25;;;;;;;;;;7377477;19;20086;-75
2021/12/08 11:15:18;;;;;;;3.83;1.92;;;;;;;;;;7387234;19;20014;-71
2021/12/08 11:17:44;;;;;;;3.28;1.98;;;;;;;;;;7384885;19;20767;-73
2021/12/08 11:20:31;;;;;;;4.95;2.08;;;;;;;;;;7383302;19;20178;-72
2021/12/08 11:23:03;;;;;;;2.78;2.03;;;;;;;;;;7382712;19;20014;-77
2021/12/08 11:25:35;;;;;;;4.25;2.17;;;;;;;;;;7383045;19;20047;-78
2021/12/08 11:28:29;;;;;;;3.20;1.70;;;;;;;;;;7381154;19;20010;-71
2021/12/08 11:30:58;;;;;;;4.97;2.30;;;;;;;;;;7374645;19;20011;-74
2021/12/08 11:33:24;;;;;;;3.30;2.22;;;;;;;;;;7383963;19;20007;-74
2021/12/08 11:36:10;;;;;;;3.53;2.22;;;;;;;;;;7383347;19;20496;-75
2021/12/08 11:38:36;;;;;;;3.47;2.35;;;;;;;;;;7381917;19;20013;-73
2021/12/08 11:41:09;;;;;;;3.50;2.50;;;;;;;;;;7383009;19;20196;-74
2021/12/08 11:43:34;;;;;;;3.30;2.05;;;;;;;;;;7384382;19;20007;-75
2021/12/08 11:46:17;;;;;;;3.30;2.20;;;;;;;;;;7387279;19;20009;-72
2021/12/08 11:49:04;;;;;;;2.33;2.00;;;;;;;;;;7382107;19;20038;-74
2021/12/08 11:51:44;;;;;;;3.38;2.00;;;;;;;;;;7381711;19;20597;-73
2021/12/08 11:54:24;;;;;;;2.05;1.75;;;;;;;;;;7382807;19;20322;-74
2021/12/08 11:56:50;;;;;;;8.02;2.08;;;;;;;;;;7384290;19;20077;-75
2021/12/08 11:59:16;;;;;;;3.85;2.60;;;;;;;;;;7383552;19;20026;-71
2021/12/08 12:01:41;;;;;;;4.15;2.30;;;;;;;;;;7382853;19;19999;-73
2021/12/08 12:04:09;;;;;;;10.82;5.28;;;;;;;;;;7385489;19;20166;-72
2021/12/08 12:06:37;;;;;;;3.50;2.55;;;;;;;;;;7380843;19;20845;-73
2021/12/08 12:09:06;;;;;;;3.20;2.33;;;;;;;;;;7379519;19;20011;-74
2021/12/08 12:11:31;;;;;;;2.67;1.98;;;;;;;;;;7376436;19;20023;-71
2021/12/08 12:13:58;;;;;;;2.63;1.70;;;;;;;;;;7384366;19;20003;-71
2021/12/08 12:16:24;;;;;;;3.35;2.10;;;;;;;;;;7378028;19;20027;-79
2021/12/08 12:18:53;;;;;;;4.30;2.63;;;;;;;;;;7382538;19;20003;-73
2021/12/08 12:21:40;;;;;;;2.60;2.30;;;;;;;;;;7380593;19;20035;-74
2021/12/08 12:24:24;;;;;;;2.60;2.05;;;;;;;;;;7381457;19;20003;-73
2021/12/08 12:27:47;;;;;;;3.75;2.20;;;;;;;;;;7376780;19;20022;-72
2021/12/08 12:30:24;;;;;;;3.15;2.03;;;;;;;;;;7374584;19;20054;-72
2021/12/08 12:32:51;;;;;;;2.35;2.05;;;;;;;;;;7343217;19;20015;-76
2021/12/08 12:35:29;;;;;;;2.85;2.00;;;;;;;;;;7377063;19;20815;-74
2021/12/08 12:38:00;;;;;;;6.75;3.53;;;;;;;;;;7381216;19;20018;-73
2021/12/08 12:40:33;;;;;;;10.63;5.18;;;;;;;;;;7380130;19;20010;-72
2021/12/08 12:42:59;;;;;;;6.15;3.55;;;;;;;;;;7382713;19;20025;-72
2021/12/08 12:45:33;;;;;;;4.88;2.75;;;;;;;;;;7380480;19;20010;-75
2021/12/08 12:48:19;;;;;;;4.05;2.60;;;;;;;;;;7379407;19;20306;-73
2021/12/08 12:51:13;;;;;;;4.63;2.90;;;;;;;;;;7378659;19;20097;-73
2021/12/08 12:53:53;;;;;;;2.60;2.08;;;;;;;;;;7380903;19;20464;-74
2021/12/08 12:56:27;;;;;;;1.88;1.65;;;;;;;;;;7377352;19;20007;-72
2021/12/08 12:58:53;;;;;;;2.85;1.88;;;;;;;;;;7377831;19;20058;-73
2021/12/08 13:01:27;;;;;;;8.00;2.38;;;;;;;;;;7374814;19;20024;-73
2021/12/08 13:04:06;;;;;;;3.58;2.10;;;;;;;;;;7380363;19;19998;-74
2021/12/08 13:06:39;;;;;;;5.10;1.92;;;;;;;;;;7377422;19;20596;-72
2021/12/08 13:09:07;;;;;;;4.05;1.98;;;;;;;;;;7379773;19;20011;-75
2021/12/08 13:11:51;;;;;;;2.85;2.00;;;;;;;;;;7381118;19;20010;-76
2021/12/08 13:14:26;;;;;;;2.38;1.65;;;;;;;;;;7380704;19;20006;-75
2021/12/08 13:17:12;;;;;;;2.22;1.80;;;;;;;;;;7380327;19;20050;-73
2021/12/08 13:19:56;;;;;;;2.70;2.03;;;;;;;;;;7378514;19;20037;-75
2021/12/08 13:22:56;;;;;;;10.45;3.45;;;;;;;;;;7380995;19;20386;-72
2021/12/08 13:28:21;;;;;;;3.03;1.52;;;;;;;;;;7377317;19;20531;-73
2021/12/08 13:30:46;;;;;;;3.25;2.42;;;;;;;;;;7377386;19;20011;-73
2021/12/08 13:33:39;;;;;;;4.65;2.20;;;;;;;;;;7375973;19;20002;-73
2021/12/08 13:36:20;;;;;;;2.78;2.00;;;;;;;;;;7376912;19;20015;-73
2021/12/08 13:39:04;;;;;;;4.85;2.40;;;;;;;;;;7380701;19;20017;-73
2021/12/08 13:41:35;;;;;;;5.20;2.97;;;;;;;;;;7378944;19;20039;-72
2021/12/08 13:44:20;;;;;;;3.97;2.65;;;;;;;;;;7380338;19;20010;-72
2021/12/08 13:46:48;;;;;;;3.95;2.63;;;;;;;;;;7379897;19;20030;-72
2021/12/08 13:49:26;;;;;;;2.42;1.80;;;;;;;;;;7381802;19;20021;-72
2021/12/08 13:52:06;;;;;;;2.95;2.08;;;;;;;;;;7378107;19;20070;-72
2021/12/08 13:54:37;;;;;;;3.60;2.30;;;;;;;;;;7379746;19;20031;-72
2021/12/08 13:57:25;;;;;;;3.13;2.33;;;;;;;;;;7379894;19;20002;-73
2021/12/08 14:00:01;;;;;;;3.03;2.30;;;;;;;;;;7379069;19;20409;-73
2021/12/08 14:02:36;;;;;;;5.07;2.25;;;;;;;;;;7378502;19;20014;-73
2021/12/08 14:05:09;;;;;;;2.88;2.00;;;;;;;;;;7386567;19;20010;-73
2021/12/08 14:07:37;;;;;;;2.92;2.10;;;;;;;;;;7386690;19;20628;-72
2021/12/08 14:10:09;;;;;;;4.35;2.75;;;;;;;;;;7387195;19;20102;-71
2021/12/08 14:12:43;;;;;;;3.78;2.25;;;;;;;;;;7386711;19;20006;-71
2021/12/08 14:15:14;;;;;;;2.67;2.10;;;;;;;;;;7386490;19;20023;-73
2021/12/08 14:17:39;;;;;;;4.80;2.50;;;;;;;;;;7384229;19;20010;-73
2021/12/08 14:20:24;;;;;;;5.50;2.17;;;;;;;;;;7384458;19;20035;-73
2021/12/08 14:22:50;;;;;;;2.45;1.85;;;;;;;;;;7381509;19;20216;-75
2021/12/08 14:25:15;;;;;;;3.65;2.22;;;;;;;;;;7384643;19;20126;-75
2021/12/08 14:27:41;;;;;;;3.95;2.65;;;;;;;;;;7386893;19;20014;-76
2021/12/08 14:30:06;;;;;;;3.95;2.50;;;;;;;;;;7380511;19;20007;-76
2021/12/08 14:32:32;;;;;;;4.18;3.00;;;;;;;;;;7387022;19;20019;-76
2021/12/08 14:34:57;;;;;;;4.05;2.60;;;;;;;;;;7383488;19;20069;-78
2021/12/08 14:37:22;;;;;;;2.50;1.92;;;;;;;;;;7386414;19;20832;-76
2021/12/08 14:39:50;;;;;;;4.13;2.50;;;;;;;;;;7385091;19;20011;-77
2021/12/08 14:42:26;;;;;;;3.08;2.03;;;;;;;;;;7382510;19;20010;-76
2021/12/08 14:44:56;;;;;;;3.53;1.85;;;;;;;;;;7384302;19;20126;-78
2021/12/08 14:47:27;;;;;;;6.32;2.25;;;;;;;;;;7384556;19;20007;-78
2021/12/08 14:49:59;;;;;;;5.20;2.20;;;;;;;;;;7383052;19;20037;-77
2021/12/08 14:52:28;;;;;;;3.42;2.08;;;;;;;;;;7382111;19;20497;-76
2021/12/08 14:54:55;;;;;;;3.45;2.10;;;;;;;;;;7386654;19;20011;-78
2021/12/08 14:57:24;;;;;;;3.25;2.00;;;;;;;;;;7384222;19;20019;-76
2021/12/08 15:00:20;;;;;;;4.78;2.03;;;;;;;;;;7380694;19;20010;-75
2021/12/08 15:02:57;;;;;;;6.70;2.25;;;;;;;;;;7382202;19;20090;-77
2021/12/08 15:05:23;;;;;;;6.55;2.53;;;;;;;;;;7385673;19;20013;-78
2021/12/08 15:07:49;;;;;;;3.92;2.17;;;;;;;;;;7384074;19;20105;-77
2021/12/08 15:10:24;;;;;;;3.55;2.83;;;;;;;;;;7384243;19;20015;-76
2021/12/08 15:12:49;;;;;;;4.82;2.33;;;;;;;;;;7384552;19;20428;-75
2021/12/08 15:15:18;;;;;;;3.78;2.28;;;;;;;;;;7381200;19;20003;-76
2021/12/08 15:17:45;;;;;;;5.18;3.35;;;;;;;;;;7383600;19;20467;-75
2021/12/08 15:20:12;;;;;;;27.23;11.98;;;;;;;;;;7378897;19;20014;-75
2021/12/08 15:22:43;;;;;;;13.18;5.07;;;;;;;;;;7383889;19;20014;-78
2021/12/08 15:25:28;;;;;;;10.93;4.25;;;;;;;;;;7384474;19;20010;-76
2021/12/08 15:27:56;;;;;;;4.20;2.40;;;;;;;;;;7380470;19;20006;-80
2021/12/08 15:30:41;;;;;;;4.55;2.67;;;;;;;;;;7384995;19;20006;-75
2021/12/08 15:33:08;;;;;;;;;;;;;;;;;;7384822;19;20018;-76
2021/12/08 15:35:34;;;;;;;2.38;1.83;;;;;;;;;;7380125;19;19985;-73
2021/12/08 15:38:01;;;;;;;3.63;2.20;;;;;;;;;;7384734;19;20042;-73
2021/12/08 15:40:34;;;;;;;5.68;3.42;;;;;;;;;;7349413;19;20845;-73
2021/12/08 15:43:04;;;;;;;4.43;2.67;;;;;;;;;;7381905;19;20043;-74
2021/12/08 15:45:29;;;;;;;5.32;2.97;;;;;;;;;;7385622;19;20728;-73
2021/12/08 15:47:56;;;;;;;6.88;3.15;;;;;;;;;;7384326;19;20020;-73